Time,TemperatureF,DewpointF,PressureIn,WindDirection,WindDirectionDegrees,WindSpeedMPH,WindSpeedGustMPH,Humidity,HourlyPrecipIn,Conditions,Clouds,dailyrainin,SoftwareType,DateUTC
2013-06-06 00:01:00,75.5,72.4,29.88,East,92,1.0,5.0,90,0.00,,,0.00,Wunderground v.1.13,2013-06-06 04:01:00,
2013-06-06 00:02:00,75.5,72.4,29.88,East,90,2.0,6.0,90,0.00,,,0.00,Wunderground v.1.13,2013-06-06 04:02:00,
2013-06-06 00:08:00,75.4,72.3,29.88,NE,40,0.0,7.0,90,0.06,,,0.01,Wunderground v.1.13,2013-06-06 04:08:00,
2013-06-06 00:13:00,75.4,72.3,29.87,ENE,69,0.0,3.0,90,0.06,,,0.01,Wunderground v.1.13,2013-06-06 04:13:00,
2013-06-06 00:18:00,75.4,72.3,29.87,NE,46,0.0,3.0,90,0.04,,,0.01,Wunderground v.1.13,2013-06-06 04:18:00,
2013-06-06 00:23:00,75.4,72.3,29.86,ENE,59,0.0,3.0,90,0.00,,,0.01,Wunderground v.1.13,2013-06-06 04:23:00,
2013-06-06 00:28:00,75.3,72.2,29.86,ESE,119,1.0,5.0,90,0.00,,,0.01,Wunderground v.1.13,2013-06-06 04:28:00,
2013-06-06 00:33:00,75.4,72.3,29.86,SE,129,0.0,1.0,90,0.00,,,0.01,Wunderground v.1.13,2013-06-06 04:33:00,
2013-06-06 00:38:00,75.3,72.2,29.85,ENE,67,0.0,2.0,90,0.00,,,0.02,Wunderground v.1.13,2013-06-06 04:38:00,
2013-06-06 00:43:00,75.4,72.3,29.85,ENE,61,0.0,5.0,90,0.00,,,0.02,Wunderground v.1.13,2013-06-06 04:43:00,
2013-06-06 00:48:00,75.4,72.3,29.85,NE,44,0.0,2.0,90,0.08,,,0.03,Wunderground v.1.13,2013-06-06 04:48:00,
2013-06-06 00:53:00,75.4,72.3,29.84,South,179,0.0,0.0,90,0.07,,,0.03,Wunderground v.1.13,2013-06-06 04:53:00,
2013-06-06 00:58:00,75.4,72.3,29.84,East,83,0.0,0.0,90,0.06,,,0.04,Wunderground v.1.13,2013-06-06 04:58:00,
2013-06-06 01:03:00,75.4,72.3,29.84,NNE,22,0.0,0.0,90,0.06,,,0.04,Wunderground v.1.13,2013-06-06 05:03:00,
2013-06-06 01:08:00,75.5,72.4,29.84,NNE,30,0.0,1.0,90,0.04,,,0.04,Wunderground v.1.13,2013-06-06 05:08:00,
2013-06-06 01:13:00,75.5,72.7,29.84,SSW,209,1.0,3.0,91,0.04,,,0.05,Wunderground v.1.13,2013-06-06 05:13:00,
2013-06-06 01:19:00,75.6,72.8,29.84,SE,132,9.0,9.0,91,0.04,,,0.05,Wunderground v.1.13,2013-06-06 05:19:00,
2013-06-06 01:24:00,75.6,72.8,29.84,NE,54,0.0,1.0,91,0.04,,,0.05,Wunderground v.1.13,2013-06-06 05:24:00,
2013-06-06 01:29:00,75.7,72.9,29.83,NE,56,0.0,12.0,91,0.00,,,0.05,Wunderground v.1.13,2013-06-06 05:29:00,
2013-06-06 01:34:00,75.7,72.9,29.83,ESE,102,0.0,1.0,91,0.00,,,0.05,Wunderground v.1.13,2013-06-06 05:34:00,
2013-06-06 01:39:00,75.7,72.9,29.83,East,82,4.0,4.0,91,0.00,,,0.06,Wunderground v.1.13,2013-06-06 05:39:00,
2013-06-06 01:44:00,75.8,73.0,29.83,ESE,103,0.0,5.0,91,0.00,,,0.06,Wunderground v.1.13,2013-06-06 05:44:00,
2013-06-06 01:49:00,75.8,73.0,29.82,ESE,112,0.0,5.0,91,0.00,,,0.06,Wunderground v.1.13,2013-06-06 05:49:00,
2013-06-06 01:54:00,75.8,73.0,29.83,SE,130,3.0,3.0,91,0.00,,,0.06,Wunderground v.1.13,2013-06-06 05:54:00,
2013-06-06 01:59:00,75.8,73.0,29.82,ENE,71,5.0,6.0,91,0.00,,,0.07,Wunderground v.1.13,2013-06-06 05:59:00,
2013-06-06 02:04:00,75.7,72.9,29.82,SE,130,0.0,3.0,91,0.00,,,0.07,Wunderground v.1.13,2013-06-06 06:04:00,
2013-06-06 02:09:00,75.7,72.9,29.82,ENE,76,0.0,2.0,91,0.00,,,0.07,Wunderground v.1.13,2013-06-06 06:09:00,
2013-06-06 02:15:00,75.7,72.9,29.82,ESE,110,0.0,2.0,91,0.00,,,0.07,Wunderground v.1.13,2013-06-06 06:15:00,
2013-06-06 02:20:00,75.6,72.8,29.82,ENE,65,7.0,7.0,91,0.00,,,0.07,Wunderground v.1.13,2013-06-06 06:20:00,
2013-06-06 02:25:00,75.5,72.7,29.81,NE,36,0.0,9.0,91,0.00,,,0.07,Wunderground v.1.13,2013-06-06 06:25:00,
2013-06-06 02:30:00,75.4,72.6,29.81,ESE,121,0.0,4.0,91,0.00,,,0.07,Wunderground v.1.13,2013-06-06 06:30:00,
2013-06-06 02:35:00,75.3,72.5,29.81,ENE,61,0.0,2.0,91,0.00,,,0.08,Wunderground v.1.13,2013-06-06 06:35:00,
2013-06-06 02:40:00,75.2,72.4,29.81,East,95,0.0,5.0,91,0.14,,,0.09,Wunderground v.1.13,2013-06-06 06:40:00,
2013-06-06 02:45:00,75.2,72.4,29.80,NE,50,2.0,5.0,91,0.18,,,0.11,Wunderground v.1.13,2013-06-06 06:45:00,
2013-06-06 02:50:00,75.2,72.4,29.80,ESE,103,0.0,1.0,91,0.46,,,0.12,Wunderground v.1.13,2013-06-06 06:50:00,
2013-06-06 02:55:00,75.2,72.4,29.81,ESE,115,0.0,1.0,91,0.36,,,0.14,Wunderground v.1.13,2013-06-06 06:55:00,
2013-06-06 03:00:00,75.3,72.5,29.80,SSE,155,2.0,2.0,91,0.54,,,0.18,Wunderground v.1.13,2013-06-06 07:00:00,
2013-06-06 03:06:00,75.2,72.4,29.79,ENE,72,0.0,1.0,91,0.15,,,0.20,Wunderground v.1.13,2013-06-06 07:06:00,
2013-06-06 03:11:00,75.2,72.4,29.79,SE,138,0.0,4.0,91,0.10,,,0.21,Wunderground v.1.13,2013-06-06 07:11:00,
2013-06-06 03:16:00,75.2,72.4,29.79,SE,138,1.0,4.0,91,0.15,,,0.22,Wunderground v.1.13,2013-06-06 07:16:00,
2013-06-06 03:21:00,75.0,72.2,29.79,ENE,71,0.0,5.0,91,0.83,,,0.26,Wunderground v.1.13,2013-06-06 07:21:00,
2013-06-06 03:26:00,74.9,72.1,29.78,ESE,113,0.0,4.0,91,0.18,,,0.28,Wunderground v.1.13,2013-06-06 07:26:00,
2013-06-06 03:31:00,74.9,72.1,29.79,NE,53,0.0,2.0,91,0.20,,,0.30,Wunderground v.1.13,2013-06-06 07:31:00,
2013-06-06 03:37:00,75.1,72.6,29.79,ESE,107,0.0,1.0,92,0.13,,,0.31,Wunderground v.1.13,2013-06-06 07:37:00,
2013-06-06 03:42:00,75.1,72.6,29.77,NE,34,0.0,0.0,92,0.16,,,0.32,Wunderground v.1.13,2013-06-06 07:42:00,
2013-06-06 03:47:00,75.1,72.6,29.76,ESE,102,1.0,11.0,92,0.13,,,0.33,Wunderground v.1.13,2013-06-06 07:47:00,
2013-06-06 03:52:00,75.2,72.7,29.76,ENE,61,0.0,2.0,92,0.06,,,0.33,Wunderground v.1.13,2013-06-06 07:52:00,
2013-06-06 03:57:00,75.3,72.8,29.76,ENE,59,4.0,5.0,92,0.04,,,0.33,Wunderground v.1.13,2013-06-06 07:57:00,
2013-06-06 04:02:00,74.4,71.9,29.77,SW,220,1.0,4.0,92,0.00,,,0.33,Wunderground v.1.13,2013-06-06 08:02:00,
2013-06-06 04:07:00,74.5,72.0,29.76,NE,54,3.0,6.0,92,0.00,,,0.33,Wunderground v.1.13,2013-06-06 08:07:00,
2013-06-06 04:12:00,74.4,71.9,29.76,SSE,149,2.0,5.0,92,0.00,,,0.33,Wunderground v.1.13,2013-06-06 08:12:00,
2013-06-06 04:17:00,74.2,71.7,29.75,ENE,59,5.0,5.0,92,0.00,,,0.33,Wunderground v.1.13,2013-06-06 08:17:00,
2013-06-06 04:22:00,74.2,71.7,29.75,ENE,61,4.0,10.0,92,0.00,,,0.33,Wunderground v.1.13,2013-06-06 08:22:00,
2013-06-06 04:28:00,74.5,72.0,29.75,East,83,1.0,9.0,92,0.00,,,0.33,Wunderground v.1.13,2013-06-06 08:28:00,
2013-06-06 04:33:00,74.7,72.2,29.76,East,92,0.0,3.0,92,0.00,,,0.33,Wunderground v.1.13,2013-06-06 08:33:00,
2013-06-06 04:38:00,74.8,72.3,29.76,ENE,60,0.0,4.0,92,0.00,,,0.33,Wunderground v.1.13,2013-06-06 08:38:00,
2013-06-06 04:43:00,74.7,72.2,29.76,NE,51,0.0,4.0,92,0.00,,,0.33,Wunderground v.1.13,2013-06-06 08:43:00,
2013-06-06 04:48:00,74.8,72.3,29.76,SE,138,0.0,5.0,92,0.00,,,0.34,Wunderground v.1.13,2013-06-06 08:48:00,
2013-06-06 04:53:00,75.0,72.5,29.75,SE,142,5.0,6.0,92,0.15,,,0.36,Wunderground v.1.13,2013-06-06 08:53:00,
2013-06-06 04:58:00,75.0,72.5,29.75,ENE,60,1.0,4.0,92,0.13,,,0.37,Wunderground v.1.13,2013-06-06 08:58:00,
2013-06-06 05:03:00,75.0,72.5,29.75,NNE,17,0.0,2.0,92,0.30,,,0.39,Wunderground v.1.13,2013-06-06 09:03:00,
2013-06-06 05:08:00,75.0,72.5,29.75,SSE,152,4.0,7.0,92,0.39,,,0.42,Wunderground v.1.13,2013-06-06 09:08:00,
2013-06-06 05:13:00,75.0,72.5,29.75,ESE,123,0.0,5.0,92,0.34,,,0.44,Wunderground v.1.13,2013-06-06 09:13:00,
2013-06-06 05:18:00,75.0,72.5,29.75,SSE,155,9.0,9.0,92,0.63,,,0.48,Wunderground v.1.13,2013-06-06 09:18:00,
2013-06-06 05:24:00,74.9,72.4,29.75,SSE,148,7.0,7.0,92,1.97,,,0.58,Wunderground v.1.13,2013-06-06 09:24:00,
2013-06-06 05:29:00,74.8,72.3,29.75,SSE,148,0.0,6.0,92,0.39,,,0.62,Wunderground v.1.13,2013-06-06 09:29:00,
2013-06-06 05:34:00,74.6,72.1,29.74,ESE,115,2.0,4.0,92,0.21,,,0.63,Wunderground v.1.13,2013-06-06 09:34:00,
2013-06-06 05:39:00,74.6,72.1,29.73,NE,52,0.0,5.0,92,0.16,,,0.65,Wunderground v.1.13,2013-06-06 09:39:00,
2013-06-06 05:44:00,74.6,72.1,29.73,ESE,103,1.0,3.0,92,0.10,,,0.65,Wunderground v.1.13,2013-06-06 09:44:00,
2013-06-06 05:49:00,74.6,72.1,29.73,SSE,150,0.0,3.0,92,0.05,,,0.65,Wunderground v.1.13,2013-06-06 09:49:00,
2013-06-06 05:54:00,74.7,72.2,29.73,ENE,64,0.0,5.0,92,0.04,,,0.65,Wunderground v.1.13,2013-06-06 09:54:00,
2013-06-06 05:59:00,74.8,72.3,29.73,East,99,1.0,3.0,92,0.00,,,0.66,Wunderground v.1.13,2013-06-06 09:59:00,
2013-06-06 06:04:00,74.8,72.3,29.73,SSE,148,0.0,5.0,92,0.14,,,0.67,Wunderground v.1.13,2013-06-06 10:04:00,
2013-06-06 06:09:00,74.8,72.3,29.73,SSE,147,0.0,5.0,92,1.70,,,0.74,Wunderground v.1.13,2013-06-06 10:09:00,
2013-06-06 06:14:00,74.7,72.2,29.73,SSE,148,2.0,4.0,92,0.30,,,0.78,Wunderground v.1.13,2013-06-06 10:14:00,
2013-06-06 06:19:00,74.6,72.1,29.72,SSE,148,0.0,5.0,92,0.17,,,0.79,Wunderground v.1.13,2013-06-06 10:19:00,
2013-06-06 06:24:00,74.6,72.1,29.72,ENE,60,0.0,2.0,92,0.12,,,0.80,Wunderground v.1.13,2013-06-06 10:24:00,
2013-06-06 06:30:00,74.6,72.1,29.72,SSE,153,4.0,4.0,92,0.10,,,0.81,Wunderground v.1.13,2013-06-06 10:30:00,
2013-06-06 06:35:00,74.6,72.1,29.71,SE,146,2.0,8.0,92,0.09,,,0.82,Wunderground v.1.13,2013-06-06 10:35:00,
2013-06-06 06:40:00,74.6,72.1,29.71,SE,136,10.0,10.0,92,0.28,,,0.84,Wunderground v.1.13,2013-06-06 10:40:00,
2013-06-06 06:45:00,74.6,72.1,29.71,South,175,4.0,6.0,92,0.11,,,0.84,Wunderground v.1.13,2013-06-06 10:45:00,
2013-06-06 06:50:00,74.6,72.1,29.71,SE,128,0.0,5.0,92,0.09,,,0.85,Wunderground v.1.13,2013-06-06 10:50:00,
2013-06-06 06:55:00,74.7,72.5,29.71,ESE,109,2.0,6.0,93,0.07,,,0.85,Wunderground v.1.13,2013-06-06 10:55:00,
2013-06-06 07:00:00,74.7,72.5,29.71,East,99,0.0,5.0,93,0.04,,,0.85,Wunderground v.1.13,2013-06-06 11:00:00,
2013-06-06 07:05:00,74.7,72.5,29.71,ENE,76,0.0,9.0,93,0.00,,,0.85,Wunderground v.1.13,2013-06-06 11:05:00,
2013-06-06 07:10:00,74.7,72.5,29.72,SE,142,1.0,5.0,93,0.00,,,0.85,Wunderground v.1.13,2013-06-06 11:10:00,
2013-06-06 07:15:00,74.6,72.4,29.72,SSE,154,3.0,3.0,93,0.00,,,0.85,Wunderground v.1.13,2013-06-06 11:15:00,
2013-06-06 07:20:00,74.6,72.4,29.72,SSE,162,1.0,3.0,93,0.00,,,0.85,Wunderground v.1.13,2013-06-06 11:20:00,
2013-06-06 07:25:00,74.5,72.3,29.72,SSE,165,2.0,2.0,93,0.00,,,0.85,Wunderground v.1.13,2013-06-06 11:25:00,
2013-06-06 07:31:00,74.4,72.2,29.72,East,87,2.0,3.0,93,0.00,,,0.85,Wunderground v.1.13,2013-06-06 11:31:00,
2013-06-06 07:36:00,74.4,72.2,29.72,SSE,165,6.0,14.0,93,0.00,,,0.85,Wunderground v.1.13,2013-06-06 11:36:00,
2013-06-06 07:41:00,74.4,72.2,29.72,SE,137,0.0,4.0,93,0.00,,,0.85,Wunderground v.1.13,2013-06-06 11:41:00,
2013-06-06 07:46:00,74.4,72.2,29.73,SE,134,0.0,5.0,93,0.00,,,0.86,Wunderground v.1.13,2013-06-06 11:46:00,
2013-06-06 07:51:00,74.4,72.2,29.72,SSE,150,0.0,10.0,93,0.08,,,0.87,Wunderground v.1.13,2013-06-06 11:51:00,
2013-06-06 07:57:00,74.5,72.3,29.73,SSE,157,9.0,9.0,93,0.36,,,0.89,Wunderground v.1.13,2013-06-06 11:57:00,
2013-06-06 08:02:00,74.4,72.2,29.73,ENE,64,0.0,6.0,93,0.40,,,0.93,Wunderground v.1.13,2013-06-06 12:02:00,
2013-06-06 08:07:00,74.4,72.2,29.72,SSE,149,1.0,9.0,93,0.18,,,0.94,Wunderground v.1.13,2013-06-06 12:07:00,
2013-06-06 08:12:00,74.3,72.1,29.72,SSE,153,0.0,5.0,93,0.07,,,0.94,Wunderground v.1.13,2013-06-06 12:12:00,
2013-06-06 08:17:00,74.3,72.1,29.72,South,188,2.0,5.0,93,0.06,,,0.95,Wunderground v.1.13,2013-06-06 12:17:00,
2013-06-06 08:22:00,74.2,72.0,29.73,SSE,160,11.0,15.0,93,0.09,,,0.96,Wunderground v.1.13,2013-06-06 12:22:00,
2013-06-06 08:27:00,74.2,72.0,29.73,SE,146,4.0,10.0,93,0.37,,,0.98,Wunderground v.1.13,2013-06-06 12:27:00,
2013-06-06 08:32:00,74.2,72.0,29.73,SSE,151,6.0,9.0,93,0.16,,,0.99,Wunderground v.1.13,2013-06-06 12:32:00,
2013-06-06 08:37:00,74.1,71.9,29.73,SSE,149,6.0,15.0,93,0.13,,,1.00,Wunderground v.1.13,2013-06-06 12:37:00,
2013-06-06 08:42:00,74.1,71.9,29.73,SSE,161,6.0,16.0,93,0.21,,,1.02,Wunderground v.1.13,2013-06-06 12:42:00,
2013-06-06 08:47:00,74.1,71.9,29.73,SSE,155,12.0,12.0,93,0.17,,,1.03,Wunderground v.1.13,2013-06-06 12:47:00,
2013-06-06 08:52:00,74.1,71.9,29.73,SSE,148,3.0,6.0,93,0.19,,,1.05,Wunderground v.1.13,2013-06-06 12:52:00,
2013-06-06 08:57:00,74.1,71.9,29.73,SE,127,5.0,17.0,93,0.18,,,1.07,Wunderground v.1.13,2013-06-06 12:57:00,
2013-06-06 09:02:00,74.1,71.9,29.73,South,181,12.0,12.0,93,0.17,,,1.08,Wunderground v.1.13,2013-06-06 13:02:00,
2013-06-06 09:07:00,74.1,71.9,29.72,SSE,148,2.0,7.0,93,0.14,,,1.10,Wunderground v.1.13,2013-06-06 13:07:00,
2013-06-06 09:12:00,74.2,72.0,29.71,East,90,2.0,10.0,93,0.10,,,1.10,Wunderground v.1.13,2013-06-06 13:12:00,
2013-06-06 09:17:00,74.3,72.1,29.71,South,176,4.0,13.0,93,0.09,,,1.11,Wunderground v.1.13,2013-06-06 13:17:00,
2013-06-06 09:22:00,74.4,72.2,29.71,SSE,159,8.0,11.0,93,0.12,,,1.12,Wunderground v.1.13,2013-06-06 13:22:00,
2013-06-06 09:28:00,74.4,72.2,29.71,SSE,150,2.0,13.0,93,0.22,,,1.14,Wunderground v.1.13,2013-06-06 13:28:00,
2013-06-06 09:33:00,74.5,72.3,29.71,SSE,157,12.0,12.0,93,0.72,,,1.19,Wunderground v.1.13,2013-06-06 13:33:00,
2013-06-06 09:38:00,74.6,72.4,29.73,South,171,13.0,13.0,93,3.31,,,1.33,Wunderground v.1.13,2013-06-06 13:38:00,
2013-06-06 09:43:00,74.5,72.3,29.72,SE,131,0.0,7.0,93,2.56,,,1.49,Wunderground v.1.13,2013-06-06 13:43:00,
2013-06-06 09:48:00,74.4,72.2,29.73,South,170,4.0,6.0,93,1.92,,,1.65,Wunderground v.1.13,2013-06-06 13:48:00,
2013-06-06 09:53:00,74.4,72.2,29.72,East,91,0.0,3.0,93,2.18,,,1.76,Wunderground v.1.13,2013-06-06 13:53:00,
2013-06-06 09:58:00,74.5,72.3,29.71,South,186,2.0,5.0,93,0.40,,,1.83,Wunderground v.1.13,2013-06-06 13:58:00,
2013-06-06 10:03:00,74.5,72.3,29.70,SSE,150,3.0,7.0,93,0.79,,,1.86,Wunderground v.1.13,2013-06-06 14:03:00,
2013-06-06 10:08:00,74.7,72.5,29.70,ESE,113,4.0,13.0,93,0.60,,,1.91,Wunderground v.1.13,2013-06-06 14:08:00,
2013-06-06 10:13:00,74.8,72.6,29.72,SSW,213,5.0,17.0,93,0.55,,,2.02,Wunderground v.1.13,2013-06-06 14:13:00,
2013-06-06 10:18:00,74.8,72.6,29.70,SSE,163,3.0,10.0,93,1.18,,,2.09,Wunderground v.1.13,2013-06-06 14:18:00,
2013-06-06 10:23:00,75.1,72.9,29.70,SSE,153,7.0,13.0,93,0.28,,,2.11,Wunderground v.1.13,2013-06-06 14:23:00,
2013-06-06 10:28:00,75.4,73.2,29.70,SE,142,4.0,12.0,93,0.26,,,2.14,Wunderground v.1.13,2013-06-06 14:28:00,
2013-06-06 10:33:00,75.5,73.3,29.70,SSE,147,6.0,14.0,93,0.14,,,2.15,Wunderground v.1.13,2013-06-06 14:33:00,
2013-06-06 10:39:00,75.5,73.3,29.70,SSE,163,15.0,15.0,93,0.32,,,2.17,Wunderground v.1.13,2013-06-06 14:39:00,
2013-06-06 10:44:00,75.6,73.4,29.70,SSE,152,6.0,14.0,93,0.29,,,2.19,Wunderground v.1.13,2013-06-06 14:44:00,
2013-06-06 10:49:00,75.8,73.6,29.70,SSE,159,3.0,16.0,93,0.29,,,2.22,Wunderground v.1.13,2013-06-06 14:49:00,
2013-06-06 10:54:00,75.7,73.5,29.70,SSE,166,2.0,16.0,93,0.17,,,2.23,Wunderground v.1.13,2013-06-06 14:54:00,
2013-06-06 10:59:00,75.8,73.6,29.69,SSE,164,5.0,16.0,93,0.30,,,2.25,Wunderground v.1.13,2013-06-06 14:59:00,
2013-06-06 11:04:00,75.9,73.7,29.68,South,188,4.0,11.0,93,0.13,,,2.27,Wunderground v.1.13,2013-06-06 15:04:00,
2013-06-06 11:09:00,76.0,73.8,29.69,SSE,152,3.0,12.0,93,0.85,,,2.33,Wunderground v.1.13,2013-06-06 15:09:00,
2013-06-06 11:14:00,76.0,73.8,29.68,SSE,151,13.0,16.0,93,0.44,,,2.38,Wunderground v.1.13,2013-06-06 15:14:00,
2013-06-06 11:19:00,76.1,73.9,29.68,SE,140,12.0,12.0,93,0.55,,,2.44,Wunderground v.1.13,2013-06-06 15:19:00,
2013-06-06 11:24:00,76.2,74.0,29.71,South,190,7.0,20.0,93,3.16,,,2.65,Wunderground v.1.13,2013-06-06 15:24:00,
2013-06-06 11:29:00,75.0,73.2,29.70,South,184,14.0,29.0,94,3.51,,,2.98,Wunderground v.1.13,2013-06-06 15:29:00,
2013-06-06 11:34:00,74.6,72.8,29.69,SSE,159,6.0,15.0,94,0.22,,,3.03,Wunderground v.1.13,2013-06-06 15:34:00,
2013-06-06 11:39:00,74.8,72.6,29.69,SSE,156,11.0,17.0,93,0.13,,,3.04,Wunderground v.1.13,2013-06-06 15:39:00,
2013-06-06 11:44:00,75.2,73.0,29.70,SSE,155,6.0,22.0,93,0.06,,,3.04,Wunderground v.1.13,2013-06-06 15:44:00,
2013-06-06 11:49:00,75.5,73.3,29.70,SSE,159,5.0,22.0,93,0.04,,,3.04,Wunderground v.1.13,2013-06-06 15:49:00,
2013-06-06 11:54:00,75.5,73.3,29.69,SE,132,10.0,19.0,93,0.00,,,3.04,Wunderground v.1.13,2013-06-06 15:54:00,
2013-06-06 11:59:00,75.5,73.3,29.69,SE,145,11.0,17.0,93,0.00,,,3.04,Wunderground v.1.13,2013-06-06 15:59:00,
2013-06-06 12:04:00,75.5,73.3,29.69,South,186,6.0,17.0,93,0.00,,,3.04,Wunderground v.1.13,2013-06-06 16:04:00,
2013-06-06 12:09:00,75.4,73.6,29.69,SSE,153,12.0,13.0,94,0.00,,,3.04,Wunderground v.1.13,2013-06-06 16:09:00,
2013-06-06 12:15:00,75.3,73.5,29.68,SW,229,11.0,25.0,94,0.00,,,3.04,Wunderground v.1.13,2013-06-06 16:15:00,
2013-06-06 12:20:00,75.4,73.6,29.68,SSW,201,10.0,18.0,94,0.00,,,3.04,Wunderground v.1.13,2013-06-06 16:20:00,
2013-06-06 12:25:00,75.8,73.9,29.69,South,170,9.0,15.0,94,0.00,,,3.04,Wunderground v.1.13,2013-06-06 16:25:00,
2013-06-06 12:30:00,76.1,74.2,29.69,SSW,210,11.0,23.0,94,0.00,,,3.04,Wunderground v.1.13,2013-06-06 16:30:00,
2013-06-06 12:35:00,76.4,74.5,29.69,SSW,200,9.0,16.0,94,0.00,,,3.04,Wunderground v.1.13,2013-06-06 16:35:00,
2013-06-06 12:40:00,76.5,74.3,29.68,SSW,200,3.0,19.0,93,0.00,,,3.04,Wunderground v.1.13,2013-06-06 16:40:00,
2013-06-06 12:45:00,76.4,74.2,29.68,South,187,14.0,23.0,93,0.00,,,3.04,Wunderground v.1.13,2013-06-06 16:45:00,
2013-06-06 12:50:00,76.4,74.2,29.68,SSW,213,10.0,14.0,93,0.00,,,3.04,Wunderground v.1.13,2013-06-06 16:50:00,
2013-06-06 12:55:00,76.6,74.1,29.68,SSW,194,4.0,15.0,92,0.00,,,3.04,Wunderground v.1.13,2013-06-06 16:55:00,
2013-06-06 13:00:00,77.1,74.6,29.68,SW,227,6.0,9.0,92,0.00,,,3.04,Wunderground v.1.13,2013-06-06 17:00:00,
2013-06-06 13:05:00,77.6,75.1,29.69,SSE,147,15.0,15.0,92,0.00,,,3.04,Wunderground v.1.13,2013-06-06 17:05:00,
2013-06-06 13:11:00,78.0,75.2,29.68,SSW,211,16.0,16.0,91,0.00,,,3.04,Wunderground v.1.13,2013-06-06 17:11:00,
2013-06-06 13:16:00,78.3,75.1,29.68,South,188,5.0,9.0,90,0.00,,,3.04,Wunderground v.1.13,2013-06-06 17:16:00,
2013-06-06 13:21:00,78.7,75.5,29.68,South,191,9.0,9.0,90,0.00,,,3.04,Wunderground v.1.13,2013-06-06 17:21:00,
2013-06-06 13:26:00,79.0,75.5,29.68,SSW,199,16.0,16.0,89,0.00,,,3.04,Wunderground v.1.13,2013-06-06 17:26:00,
2013-06-06 13:31:00,79.4,75.9,29.68,South,180,9.0,23.0,89,0.00,,,3.04,Wunderground v.1.13,2013-06-06 17:31:00,
2013-06-06 13:36:00,79.6,75.7,29.68,South,169,5.0,14.0,88,0.00,,,3.04,Wunderground v.1.13,2013-06-06 17:36:00,
2013-06-06 13:42:00,79.8,75.9,29.68,SSE,155,6.0,12.0,88,0.00,,,3.04,Wunderground v.1.13,2013-06-06 17:42:00,
2013-06-06 13:47:00,80.0,76.1,29.68,South,185,8.0,14.0,88,0.00,,,3.04,Wunderground v.1.13,2013-06-06 17:47:00,
2013-06-06 13:52:00,80.3,76.1,29.68,SW,215,5.0,11.0,87,0.00,,,3.04,Wunderground v.1.13,2013-06-06 17:52:00,
2013-06-06 13:57:00,80.3,75.4,29.68,SSW,192,6.0,25.0,85,0.00,,,3.04,Wunderground v.1.13,2013-06-06 17:57:00,
2013-06-06 14:02:00,80.5,75.6,29.67,South,183,8.0,14.0,85,0.00,,,3.04,Wunderground v.1.13,2013-06-06 18:02:00,
2013-06-06 14:07:00,80.6,75.7,29.67,SSW,206,9.0,11.0,85,0.00,,,3.04,Wunderground v.1.13,2013-06-06 18:07:00,
2013-06-06 14:12:00,80.5,75.6,29.66,SSW,192,9.0,16.0,85,0.00,,,3.04,Wunderground v.1.13,2013-06-06 18:12:00,
2013-06-06 14:17:00,80.4,75.5,29.66,SSE,158,5.0,15.0,85,0.00,,,3.04,Wunderground v.1.13,2013-06-06 18:17:00,
2013-06-06 14:22:00,80.2,75.3,29.66,SSW,206,4.0,16.0,85,0.00,,,3.04,Wunderground v.1.13,2013-06-06 18:22:00,
2013-06-06 14:27:00,80.2,75.3,29.66,SW,227,11.0,17.0,85,0.00,,,3.04,Wunderground v.1.13,2013-06-06 18:27:00,
2013-06-06 14:32:00,79.9,75.0,29.66,SSE,157,9.0,19.0,85,0.00,,,3.04,Wunderground v.1.13,2013-06-06 18:32:00,
2013-06-06 14:37:00,79.9,75.0,29.66,South,178,12.0,14.0,85,0.00,,,3.04,Wunderground v.1.13,2013-06-06 18:37:00,
2013-06-06 14:43:00,79.7,74.8,29.67,South,176,15.0,17.0,85,0.00,,,3.04,Wunderground v.1.13,2013-06-06 18:43:00,
2013-06-06 14:48:00,79.4,74.5,29.67,SSE,156,15.0,15.0,85,0.00,,,3.04,Wunderground v.1.13,2013-06-06 18:48:00,
2013-06-06 14:53:00,79.3,74.7,29.66,SSE,150,9.0,21.0,86,0.00,,,3.04,Wunderground v.1.13,2013-06-06 18:53:00,
2013-06-06 14:58:00,79.0,74.5,29.66,SW,219,11.0,21.0,86,0.00,,,3.04,Wunderground v.1.13,2013-06-06 18:58:00,
2013-06-06 15:03:00,78.9,74.4,29.67,SSE,161,10.0,16.0,86,0.00,,,3.04,Wunderground v.1.13,2013-06-06 19:03:00,
2013-06-06 15:08:00,78.7,74.2,29.67,SSE,166,11.0,18.0,86,0.00,,,3.04,Wunderground v.1.13,2013-06-06 19:08:00,
2013-06-06 15:13:00,78.7,74.5,29.66,SSE,157,5.0,16.0,87,0.00,,,3.04,Wunderground v.1.13,2013-06-06 19:13:00,
2013-06-06 15:18:00,78.7,74.5,29.66,South,175,17.0,19.0,87,0.00,,,3.04,Wunderground v.1.13,2013-06-06 19:18:00,
2013-06-06 15:23:00,78.4,74.5,29.65,SE,144,17.0,17.0,88,0.00,,,3.05,Wunderground v.1.13,2013-06-06 19:23:00,
2013-06-06 15:29:00,77.9,74.1,29.65,South,178,6.0,22.0,88,0.00,,,3.05,Wunderground v.1.13,2013-06-06 19:29:00,
2013-06-06 15:34:00,77.7,74.2,29.65,SSW,207,15.0,16.0,89,0.00,,,3.05,Wunderground v.1.13,2013-06-06 19:34:00,
2013-06-06 15:39:00,77.5,74.0,29.65,South,178,5.0,18.0,89,0.00,,,3.05,Wunderground v.1.13,2013-06-06 19:39:00,
2013-06-06 15:44:00,77.5,74.0,29.66,South,184,7.0,19.0,89,0.00,,,3.05,Wunderground v.1.13,2013-06-06 19:44:00,
2013-06-06 15:50:00,77.3,74.1,29.65,South,186,11.0,20.0,90,0.00,,,3.06,Wunderground v.1.13,2013-06-06 19:50:00,
2013-06-06 15:55:00,77.1,73.9,29.65,SW,220,21.0,21.0,90,0.18,,,3.07,Wunderground v.1.13,2013-06-06 19:55:00,
2013-06-06 16:00:00,77.0,73.8,29.65,South,190,12.0,25.0,90,0.10,,,3.08,Wunderground v.1.13,2013-06-06 20:00:00,
2013-06-06 16:05:00,76.9,74.1,29.65,SSW,211,7.0,23.0,91,0.14,,,3.09,Wunderground v.1.13,2013-06-06 20:05:00,
2013-06-06 16:10:00,77.0,74.2,29.65,South,185,8.0,21.0,91,0.53,,,3.12,Wunderground v.1.13,2013-06-06 20:10:00,
2013-06-06 16:15:00,77.0,74.2,29.65,South,184,4.0,17.0,91,0.10,,,3.12,Wunderground v.1.13,2013-06-06 20:15:00,
2013-06-06 16:20:00,77.1,74.3,29.65,South,169,17.0,18.0,91,0.05,,,3.12,Wunderground v.1.13,2013-06-06 20:20:00,
2013-06-06 16:25:00,77.4,74.6,29.65,SSW,202,9.0,9.0,91,0.04,,,3.12,Wunderground v.1.13,2013-06-06 20:25:00,
2013-06-06 16:30:00,77.5,75.0,29.64,SSW,198,8.0,8.0,92,0.00,,,3.13,Wunderground v.1.13,2013-06-06 20:30:00,
2013-06-06 16:35:00,77.3,74.8,29.65,SSW,212,9.0,9.0,92,0.21,,,3.15,Wunderground v.1.13,2013-06-06 20:35:00,
2013-06-06 16:41:00,77.3,74.8,29.65,SSW,207,7.0,10.0,92,0.07,,,3.15,Wunderground v.1.13,2013-06-06 20:41:00,
2013-06-06 16:46:00,77.0,74.5,29.65,SSW,210,15.0,15.0,92,0.05,,,3.15,Wunderground v.1.13,2013-06-06 20:46:00,
2013-06-06 16:51:00,77.1,74.6,29.65,SSW,202,7.0,11.0,92,0.00,,,3.15,Wunderground v.1.13,2013-06-06 20:51:00,
2013-06-06 16:56:00,77.3,74.8,29.65,SW,219,10.0,11.0,92,0.00,,,3.15,Wunderground v.1.13,2013-06-06 20:56:00,
2013-06-06 17:01:00,77.5,74.7,29.65,SSW,205,0.0,7.0,91,0.00,,,3.15,Wunderground v.1.13,2013-06-06 21:01:00,
2013-06-06 17:06:00,77.8,75.0,29.66,SW,219,0.0,3.0,91,0.00,,,3.15,Wunderground v.1.13,2013-06-06 21:06:00,
2013-06-06 17:11:00,78.0,74.8,29.66,SW,223,0.0,0.0,90,0.00,,,3.15,Wunderground v.1.13,2013-06-06 21:11:00,
2013-06-06 17:16:00,78.0,74.5,29.66,South,191,0.0,0.0,89,0.00,,,3.15,Wunderground v.1.13,2013-06-06 21:16:00,
2013-06-06 17:21:00,78.7,74.5,29.66,SSW,213,0.0,0.0,87,0.00,,,3.15,Wunderground v.1.13,2013-06-06 21:21:00,
2013-06-06 17:27:00,79.4,74.8,29.66,SW,233,0.0,0.0,86,0.00,,,3.15,Wunderground v.1.13,2013-06-06 21:27:00,
2013-06-06 17:32:00,79.6,74.7,29.67,WSW,240,0.0,0.0,85,0.00,,,3.15,Wunderground v.1.13,2013-06-06 21:32:00,
2013-06-06 17:37:00,79.4,74.1,29.66,SW,221,0.0,0.0,84,0.00,,,3.15,Wunderground v.1.13,2013-06-06 21:37:00,
2013-06-06 17:42:00,79.6,74.3,29.67,SW,214,0.0,0.0,84,0.00,,,3.15,Wunderground v.1.13,2013-06-06 21:42:00,
2013-06-06 17:47:00,79.8,74.2,29.67,SW,232,0.0,0.0,83,0.00,,,3.15,Wunderground v.1.13,2013-06-06 21:47:00,
2013-06-06 17:52:00,79.8,73.4,29.67,SW,220,0.0,0.0,81,0.00,,,3.15,Wunderground v.1.13,2013-06-06 21:52:00,
2013-06-06 17:57:00,80.2,73.8,29.67,SW,230,0.0,0.0,81,0.00,,,3.15,Wunderground v.1.13,2013-06-06 21:57:00,
2013-06-06 18:02:00,80.4,73.7,29.68,SSW,202,0.0,0.0,80,0.00,,,3.15,Wunderground v.1.13,2013-06-06 22:02:00,
2013-06-06 18:07:00,80.5,73.8,29.67,South,188,0.0,0.0,80,0.00,,,3.15,Wunderground v.1.13,2013-06-06 22:07:00,
2013-06-06 18:12:00,80.2,73.1,29.68,WSW,245,0.0,0.0,79,0.00,,,3.15,Wunderground v.1.13,2013-06-06 22:12:00,
2013-06-06 18:18:00,80.0,72.9,29.68,WSW,244,0.0,0.0,79,0.00,,,3.15,Wunderground v.1.13,2013-06-06 22:18:00,
2013-06-06 18:23:00,79.7,73.0,29.68,SW,224,0.0,0.0,80,0.00,,,3.15,Wunderground v.1.13,2013-06-06 22:23:00,
2013-06-06 18:28:00,79.6,72.9,29.68,SSW,197,0.0,0.0,80,0.00,,,3.15,Wunderground v.1.13,2013-06-06 22:28:00,
2013-06-06 18:33:00,79.4,72.7,29.68,SW,232,0.0,0.0,80,0.00,,,3.15,Wunderground v.1.13,2013-06-06 22:33:00,
2013-06-06 18:38:00,79.2,72.9,29.69,SSW,212,0.0,0.0,81,0.00,,,3.15,Wunderground v.1.13,2013-06-06 22:38:00,
2013-06-06 18:43:00,79.4,73.1,29.69,SSW,211,0.0,0.0,81,0.00,,,3.15,Wunderground v.1.13,2013-06-06 22:43:00,
2013-06-06 18:48:00,79.5,73.2,29.69,South,175,0.0,0.0,81,0.00,,,3.15,Wunderground v.1.13,2013-06-06 22:48:00,
2013-06-06 18:53:00,79.4,73.1,29.69,SSW,209,0.0,0.0,81,0.00,,,3.15,Wunderground v.1.13,2013-06-06 22:53:00,
2013-06-06 18:58:00,79.2,73.2,29.69,WSW,237,0.0,0.0,82,0.00,,,3.15,Wunderground v.1.13,2013-06-06 22:58:00,
2013-06-06 19:03:00,79.1,72.8,29.69,SW,227,0.0,0.0,81,0.00,,,3.15,Wunderground v.1.13,2013-06-06 23:03:00,
2013-06-06 19:08:00,79.1,72.8,29.68,SW,217,0.0,0.0,81,0.00,,,3.15,Wunderground v.1.13,2013-06-06 23:08:00,
2013-06-06 19:13:00,79.0,72.7,29.68,SW,229,0.0,0.0,81,0.00,,,3.15,Wunderground v.1.13,2013-06-06 23:13:00,
2013-06-06 19:19:00,79.0,72.7,29.69,WSW,256,0.0,0.0,81,0.00,,,3.15,Wunderground v.1.13,2013-06-06 23:19:00,
2013-06-06 19:24:00,78.8,72.5,29.69,West,271,0.0,0.0,81,0.00,,,3.15,Wunderground v.1.13,2013-06-06 23:24:00,
2013-06-06 19:29:00,78.7,72.4,29.69,WSW,245,0.0,0.0,81,0.00,,,3.15,Wunderground v.1.13,2013-06-06 23:29:00,
2013-06-06 19:34:00,78.7,72.4,29.69,SW,215,0.0,0.0,81,0.00,,,3.15,Wunderground v.1.13,2013-06-06 23:34:00,
2013-06-06 19:39:00,78.7,72.7,29.69,West,263,0.0,0.0,82,0.00,,,3.15,Wunderground v.1.13,2013-06-06 23:39:00,
2013-06-06 19:44:00,78.6,72.6,29.69,SW,235,0.0,0.0,82,0.00,,,3.15,Wunderground v.1.13,2013-06-06 23:44:00,
2013-06-06 19:49:00,78.4,72.4,29.70,SW,223,0.0,0.0,82,0.00,,,3.15,Wunderground v.1.13,2013-06-06 23:49:00,
2013-06-06 19:54:00,78.3,72.3,29.70,SW,220,0.0,0.0,82,0.00,,,3.15,Wunderground v.1.13,2013-06-06 23:54:00,
2013-06-06 19:59:00,78.2,72.6,29.70,SSW,210,0.0,0.0,83,0.00,,,3.15,Wunderground v.1.13,2013-06-06 23:59:00,
2013-06-06 20:04:00,78.2,72.6,29.71,SSW,206,0.0,0.0,83,0.00,,,3.15,Wunderground v.1.13,2013-06-07 00:04:00,
2013-06-06 20:09:00,78.2,72.6,29.71,SSW,195,0.0,0.0,83,0.00,,,3.15,Wunderground v.1.13,2013-06-07 00:09:00,
2013-06-06 20:14:00,78.1,72.9,29.71,SW,225,0.0,0.0,84,0.00,,,3.15,Wunderground v.1.13,2013-06-07 00:14:00,
2013-06-06 20:19:00,78.0,72.8,29.71,WSW,252,0.0,0.0,84,0.00,,,3.15,Wunderground v.1.13,2013-06-07 00:19:00,
2013-06-06 20:24:00,78.0,72.8,29.72,SSW,207,0.0,0.0,84,0.00,,,3.15,Wunderground v.1.13,2013-06-07 00:24:00,
2013-06-06 20:29:00,77.9,72.7,29.72,SSW,205,0.0,0.0,84,0.00,,,3.15,Wunderground v.1.13,2013-06-07 00:29:00,
2013-06-06 20:34:00,77.9,72.7,29.72,SW,217,0.0,0.0,84,0.00,,,3.15,Wunderground v.1.13,2013-06-07 00:34:00,
2013-06-06 20:39:00,77.9,73.0,29.72,SW,219,0.0,0.0,85,0.00,,,3.15,Wunderground v.1.13,2013-06-07 00:39:00,
2013-06-06 20:44:00,77.8,72.9,29.72,WSW,241,0.0,0.0,85,0.00,,,3.15,Wunderground v.1.13,2013-06-07 00:44:00,
2013-06-06 20:49:00,77.8,72.6,29.72,SSW,207,0.0,0.0,84,0.00,,,3.15,Wunderground v.1.13,2013-06-07 00:49:00,
2013-06-06 20:54:00,77.8,72.9,29.73,SW,219,0.0,0.0,85,0.00,,,3.15,Wunderground v.1.13,2013-06-07 00:54:00,
2013-06-06 21:00:00,77.7,72.8,29.73,SW,215,0.0,0.0,85,0.00,,,3.15,Wunderground v.1.13,2013-06-07 01:00:00,
2013-06-06 21:05:00,77.7,72.8,29.73,SW,228,0.0,0.0,85,0.00,,,3.15,Wunderground v.1.13,2013-06-07 01:05:00,
2013-06-06 21:10:00,77.8,72.9,29.73,SW,220,0.0,0.0,85,0.00,,,3.15,Wunderground v.1.13,2013-06-07 01:10:00,
2013-06-06 21:15:00,77.8,72.9,29.73,SW,217,0.0,0.0,85,0.00,,,3.15,Wunderground v.1.13,2013-06-07 01:15:00,
2013-06-06 21:20:00,77.7,72.8,29.73,SSW,207,0.0,0.0,85,0.00,,,3.15,Wunderground v.1.13,2013-06-07 01:20:00,
2013-06-06 21:25:00,77.6,72.7,29.74,WSW,245,0.0,0.0,85,0.00,,,3.15,Wunderground v.1.13,2013-06-07 01:25:00,
2013-06-06 21:30:00,77.5,72.6,29.74,SW,229,0.0,0.0,85,0.00,,,3.15,Wunderground v.1.13,2013-06-07 01:30:00,
2013-06-06 21:35:00,77.5,72.6,29.74,SW,227,0.0,0.0,85,0.00,,,3.15,Wunderground v.1.13,2013-06-07 01:35:00,
2013-06-06 21:40:00,77.5,72.6,29.75,SW,228,0.0,0.0,85,0.00,,,3.15,Wunderground v.1.13,2013-06-07 01:40:00,
2013-06-06 21:45:00,77.6,72.7,29.75,SW,219,0.0,0.0,85,0.00,,,3.15,Wunderground v.1.13,2013-06-07 01:45:00,
2013-06-06 21:50:00,77.6,72.7,29.76,West,268,0.0,0.0,85,0.00,,,3.15,Wunderground v.1.13,2013-06-07 01:50:00,
2013-06-06 21:55:00,77.6,72.7,29.76,SSW,208,0.0,0.0,85,0.00,,,3.15,Wunderground v.1.13,2013-06-07 01:55:00,
2013-06-06 22:00:00,77.5,72.6,29.76,SSW,196,0.0,0.0,85,0.00,,,3.15,Wunderground v.1.13,2013-06-07 02:00:00,
2013-06-06 22:05:00,77.5,72.6,29.77,SSW,206,0.0,0.0,85,0.00,,,3.15,Wunderground v.1.13,2013-06-07 02:05:00,
2013-06-06 22:10:00,77.5,72.6,29.77,SSW,211,0.0,0.0,85,0.00,,,3.15,Wunderground v.1.13,2013-06-07 02:10:00,
2013-06-06 22:15:00,77.5,72.6,29.77,SW,233,0.0,0.0,85,0.00,,,3.15,Wunderground v.1.13,2013-06-07 02:15:00,
2013-06-06 22:21:00,77.5,72.6,29.77,SSW,213,0.0,0.0,85,0.00,,,3.15,Wunderground v.1.13,2013-06-07 02:21:00,
2013-06-06 22:26:00,77.4,72.9,29.77,WSW,242,0.0,0.0,86,0.00,,,3.15,Wunderground v.1.13,2013-06-07 02:26:00,
2013-06-06 22:31:00,77.4,72.9,29.78,SW,232,0.0,0.0,86,0.00,,,3.15,Wunderground v.1.13,2013-06-07 02:31:00,
2013-06-06 22:36:00,77.4,72.9,29.78,SSW,211,0.0,0.0,86,0.00,,,3.15,Wunderground v.1.13,2013-06-07 02:36:00,
2013-06-06 22:41:00,77.4,72.9,29.78,WSW,245,0.0,0.0,86,0.00,,,3.15,Wunderground v.1.13,2013-06-07 02:41:00,
2013-06-06 22:46:00,77.4,72.9,29.79,SW,214,0.0,0.0,86,0.00,,,3.15,Wunderground v.1.13,2013-06-07 02:46:00,
2013-06-06 22:52:00,77.4,72.9,29.79,WSW,242,0.0,0.0,86,0.00,,,3.15,Wunderground v.1.13,2013-06-07 02:52:00,
2013-06-06 22:57:00,77.4,72.9,29.79,SSW,201,0.0,0.0,86,0.00,,,3.15,Wunderground v.1.13,2013-06-07 02:57:00,
2013-06-06 23:02:00,77.4,72.9,29.79,WSW,256,0.0,0.0,86,0.00,,,3.15,Wunderground v.1.13,2013-06-07 03:02:00,
2013-06-06 23:07:00,77.4,72.9,29.79,WSW,241,0.0,0.0,86,0.00,,,3.15,Wunderground v.1.13,2013-06-07 03:07:00,
2013-06-06 23:12:00,77.5,73.0,29.79,SW,221,0.0,0.0,86,0.00,,,3.15,Wunderground v.1.13,2013-06-07 03:12:00,
2013-06-06 23:17:00,77.5,73.0,29.79,South,190,0.0,0.0,86,0.00,,,3.15,Wunderground v.1.13,2013-06-07 03:17:00,
2013-06-06 23:22:00,77.4,72.9,29.79,SW,218,0.0,0.0,86,0.00,,,3.15,Wunderground v.1.13,2013-06-07 03:22:00,
2013-06-06 23:27:00,77.3,72.8,29.79,WSW,250,0.0,0.0,86,0.00,,,3.15,Wunderground v.1.13,2013-06-07 03:27:00,
2013-06-06 23:32:00,77.2,72.7,29.79,WSW,237,0.0,0.0,86,0.00,,,3.15,Wunderground v.1.13,2013-06-07 03:32:00,
2013-06-06 23:37:00,77.2,72.7,29.80,SW,221,0.0,0.0,86,0.00,,,3.15,Wunderground v.1.13,2013-06-07 03:37:00,
2013-06-06 23:42:00,77.1,72.6,29.80,SW,214,0.0,0.0,86,0.00,,,3.15,Wunderground v.1.13,2013-06-07 03:42:00,
2013-06-06 23:47:00,77.0,72.5,29.80,WSW,258,0.0,0.0,86,0.00,,,3.15,Wunderground v.1.13,2013-06-07 03:47:00,
2013-06-06 23:52:00,77.0,72.5,29.80,SW,222,0.0,0.0,86,0.00,,,3.15,Wunderground v.1.13,2013-06-07 03:52:00,
2013-06-06 23:57:00,77.0,72.5,29.80,SW,222,0.0,0.0,86,0.00,,,3.15,Wunderground v.1.13,2013-06-07 03:57:00,